createdAt,value
2022-08-30T00:00:42.741Z,68.30
2022-08-30T00:03:14.575Z,68.40
2022-08-30T00:05:43.417Z,68.30
2022-08-30T00:08:12.639Z,68.30
2022-08-30T00:10:42.298Z,68.30
2022-08-30T00:13:12.001Z,68.40
2022-08-30T00:15:40.500Z,68.40
2022-08-30T00:18:08.893Z,68.50
2022-08-30T00:20:39.874Z,68.50
2022-08-30T00:23:07.949Z,68.50
2022-08-30T00:25:35.717Z,68.60
2022-08-30T00:28:04.030Z,68.60
2022-08-30T00:30:32.260Z,68.60
2022-08-30T00:33:00.183Z,68.70
2022-08-30T00:35:28.295Z,68.70
2022-08-30T00:37:57.808Z,68.80
2022-08-30T00:40:27.949Z,68.80
2022-08-30T00:42:59.544Z,68.90
2022-08-30T00:45:30.187Z,69.00
2022-08-30T00:47:58.269Z,69.00
2022-08-30T00:50:31.942Z,69.00
2022-08-30T00:53:05.292Z,69.00
2022-08-30T00:55:33.582Z,69.10
2022-08-30T00:58:05.035Z,69.20
2022-08-30T01:00:33.561Z,69.40
2022-08-30T01:03:01.433Z,69.30
2022-08-30T01:05:29.513Z,69.40
2022-08-30T01:07:57.414Z,69.40
2022-08-30T01:10:26.524Z,69.40
2022-08-30T01:12:54.306Z,69.60
2022-08-30T01:15:23.061Z,69.60
2022-08-30T01:17:51.042Z,69.60
2022-08-30T01:20:25.048Z,69.70
2022-08-30T01:23:10.100Z,69.80
2022-08-30T01:25:38.698Z,69.80
2022-08-30T01:32:07.766Z,70.00
2022-08-30T01:34:35.544Z,70.00
2022-08-30T01:37:03.353Z,70.00
2022-08-30T01:39:34.006Z,70.10
2022-08-30T01:42:03.091Z,70.20
2022-08-30T01:44:30.861Z,70.20
2022-08-30T01:46:58.630Z,71.00
2022-08-30T01:49:28.159Z,70.30
2022-08-30T01:52:00.720Z,70.30
2022-08-30T01:54:33.718Z,70.30
2022-08-30T01:57:08.026Z,71.20
2022-08-30T01:59:35.905Z,70.50
2022-08-30T02:02:03.817Z,70.50
2022-08-30T02:04:32.328Z,70.50
2022-08-30T02:07:00.392Z,70.50
2022-08-30T02:09:28.647Z,70.50
2022-08-30T02:11:56.693Z,70.60
2022-08-30T02:14:26.173Z,70.50
2022-08-30T02:16:53.959Z,70.70
2022-08-30T02:19:21.730Z,70.70
2022-08-30T02:21:50.174Z,70.70
2022-08-30T02:24:18.079Z,70.60
2022-08-30T02:26:45.936Z,70.70
2022-08-30T02:29:14.200Z,70.70
2022-08-30T02:31:43.394Z,70.70
2022-08-30T02:34:11.348Z,70.80
2022-08-30T02:36:40.731Z,70.80
2022-08-30T02:39:09.395Z,70.80
2022-08-30T02:41:38.205Z,70.90
2022-08-30T02:44:06.842Z,70.90
2022-08-30T02:46:35.106Z,71.00
2022-08-30T02:49:23.800Z,71.00
2022-08-30T02:51:52.446Z,71.00
2022-08-30T02:54:20.633Z,71.10
2022-08-30T02:56:48.833Z,71.10
2022-08-30T02:59:17.841Z,71.20
2022-08-30T03:01:45.706Z,71.20
2022-08-30T03:04:14.997Z,71.20
2022-08-30T03:06:42.786Z,72.00
2022-08-30T03:09:10.567Z,71.20
2022-08-30T03:11:38.505Z,71.30
2022-08-30T03:14:06.320Z,71.30
2022-08-30T03:16:34.569Z,71.30
2022-08-30T03:19:02.392Z,71.40
2022-08-30T03:21:31.502Z,71.40
2022-08-30T03:23:59.266Z,71.40
2022-08-30T03:26:27.026Z,71.40
2022-08-30T03:28:54.925Z,71.40
2022-08-30T03:31:22.732Z,71.40
2022-08-30T03:33:50.498Z,71.50
2022-08-30T03:36:18.325Z,71.50
2022-08-30T03:38:47.428Z,71.50
2022-08-30T03:41:17.152Z,71.40
2022-08-30T03:43:46.558Z,71.50
2022-08-30T03:46:15.900Z,71.60
2022-08-30T03:48:43.961Z,71.60
2022-08-30T03:51:11.750Z,72.40
2022-08-30T03:53:39.534Z,71.70
2022-08-30T03:56:09.922Z,71.80
2022-08-30T03:58:37.735Z,71.70
2022-08-30T04:01:05.504Z,71.80
2022-08-30T04:03:37.179Z,71.90
2022-08-30T04:06:05.602Z,71.80
2022-08-30T04:08:33.423Z,71.90
2022-08-30T04:11:02.471Z,72.00
2022-08-30T04:13:34.655Z,72.00
2022-08-30T04:16:02.469Z,72.00
2022-08-30T04:18:30.298Z,72.10
2022-08-30T04:20:58.249Z,72.20
2022-08-30T04:23:26.049Z,72.30
2022-08-30T04:25:53.769Z,72.20
2022-08-30T04:28:22.109Z,72.30
2022-08-30T04:30:51.189Z,72.40
2022-08-30T04:33:19.306Z,72.40
2022-08-30T04:35:49.178Z,72.40
2022-08-30T04:38:17.800Z,72.50
2022-08-30T04:40:48.378Z,72.50
2022-08-30T04:43:16.463Z,72.60
2022-08-30T04:45:44.954Z,72.60
2022-08-30T04:48:14.080Z,72.70
2022-08-30T04:50:44.430Z,72.80
2022-08-30T04:53:12.326Z,72.80
2022-08-30T04:55:41.108Z,72.90
2022-08-30T04:58:08.940Z,72.90
2022-08-30T05:00:37.211Z,72.90
2022-08-30T05:03:05.600Z,73.10
2022-08-30T05:05:40.746Z,73.10
2022-08-30T05:08:08.954Z,73.20
2022-08-30T05:10:40.084Z,73.20
2022-08-30T05:13:08.139Z,73.30
2022-08-30T05:15:36.262Z,73.40
2022-08-30T05:18:04.110Z,73.40
2022-08-30T05:20:32.111Z,73.70
2022-08-30T05:23:01.281Z,73.90
2022-08-30T05:25:31.612Z,73.60
2022-08-30T05:27:59.645Z,73.30
2022-08-30T05:30:28.745Z,73.20
2022-08-30T05:32:56.516Z,73.10
2022-08-30T05:35:25.894Z,73.20
2022-08-30T05:37:54.213Z,73.30
2022-08-30T05:40:23.646Z,73.40
2022-08-30T05:42:52.652Z,73.40
2022-08-30T05:45:20.433Z,73.50
2022-08-30T05:47:48.554Z,73.60
2022-08-30T05:50:16.772Z,73.60
2022-08-30T05:52:45.593Z,73.60
2022-08-30T05:55:14.090Z,73.80
2022-08-30T05:57:43.334Z,73.80
2022-08-30T06:00:14.151Z,74.00
2022-08-30T06:02:42.399Z,74.20
2022-08-30T06:05:14.255Z,74.10
2022-08-30T06:10:39.060Z,74.10
2022-08-30T06:13:08.306Z,74.10
2022-08-30T06:15:36.584Z,74.00
2022-08-30T06:18:04.985Z,74.20
2022-08-30T06:20:33.002Z,74.20
2022-08-30T06:23:00.982Z,74.00
2022-08-30T06:25:28.819Z,74.10
2022-08-30T06:28:12.332Z,74.10
2022-08-30T06:30:42.676Z,74.10
2022-08-30T06:33:11.440Z,74.00
2022-08-30T06:35:56.822Z,74.00
2022-08-30T06:38:27.733Z,74.10
2022-08-30T06:40:55.565Z,73.90
2022-08-30T06:43:24.698Z,73.80
2022-08-30T06:45:53.974Z,73.80
2022-08-30T06:48:21.731Z,73.80
2022-08-30T06:50:54.685Z,73.60
2022-08-30T06:53:23.074Z,73.70
2022-08-30T06:55:57.766Z,73.60
2022-08-30T06:58:27.181Z,73.30
2022-08-30T07:00:55.205Z,73.30
2022-08-30T07:03:27.396Z,73.30
2022-08-30T07:05:55.638Z,73.20
2022-08-30T07:08:24.150Z,73.20
2022-08-30T07:10:54.686Z,73.20
2022-08-30T07:13:23.983Z,73.30
2022-08-30T07:15:53.384Z,73.10
2022-08-30T07:18:41.926Z,73.20
2022-08-30T07:21:11.512Z,73.20
2022-08-30T07:23:39.510Z,73.20
2022-08-30T07:26:09.561Z,73.10
2022-08-30T07:29:10.039Z,73.10
2022-08-30T07:31:40.059Z,73.10
2022-08-30T07:34:08.676Z,73.00
2022-08-30T07:36:37.151Z,73.00
2022-08-30T07:39:06.084Z,72.90
2022-08-30T07:41:38.546Z,72.80
2022-08-30T07:44:06.918Z,72.80
2022-08-30T07:46:35.146Z,72.60
2022-08-30T07:49:04.708Z,72.60
2022-08-30T07:51:39.419Z,72.50
2022-08-30T07:54:07.409Z,72.40
2022-08-30T07:56:35.237Z,72.20
2022-08-30T07:59:03.142Z,72.20
2022-08-30T08:01:31.741Z,72.10
2022-08-30T08:03:59.539Z,71.90
2022-08-30T08:06:32.942Z,71.90
2022-08-30T08:09:04.921Z,71.80
2022-08-30T08:11:34.080Z,71.60
2022-08-30T08:14:05.425Z,71.60
2022-08-30T08:16:35.347Z,71.60
2022-08-30T08:19:04.498Z,71.40
2022-08-30T08:21:33.772Z,71.20
2022-08-30T08:24:01.601Z,71.10
2022-08-30T08:26:29.390Z,71.20
2022-08-30T08:28:57.183Z,71.20
2022-08-30T08:31:33.365Z,71.10
2022-08-30T08:34:02.800Z,71.00
2022-08-30T08:36:33.153Z,70.90
2022-08-30T08:39:01.572Z,70.70
2022-08-30T08:41:41.839Z,70.70
2022-08-30T08:44:16.034Z,70.70
2022-08-30T08:46:52.906Z,70.80
2022-08-30T08:49:21.166Z,70.90
2022-08-30T08:52:07.925Z,70.80
2022-08-30T08:54:40.647Z,70.80
2022-08-30T08:57:10.306Z,70.80
2022-08-30T08:59:40.169Z,70.70
2022-08-30T09:02:24.898Z,70.50
2022-08-30T09:04:56.938Z,70.50
2022-08-30T09:07:31.011Z,70.10
2022-08-30T09:10:00.563Z,69.80
2022-08-30T09:12:33.105Z,69.60
2022-08-30T09:15:16.862Z,69.60
2022-08-30T09:17:55.195Z,69.50
2022-08-30T09:20:30.390Z,69.40
2022-08-30T09:23:00.314Z,69.30
2022-08-30T09:25:30.013Z,69.30
2022-08-30T09:28:11.996Z,69.40
2022-08-30T09:30:40.543Z,69.20
2022-08-30T09:33:21.056Z,69.00
2022-08-30T09:35:52.028Z,68.90
2022-08-30T09:38:27.289Z,68.60
2022-08-30T09:40:56.806Z,68.30
2022-08-30T09:43:27.665Z,68.20
2022-08-30T09:46:16.452Z,68.10
2022-08-30T09:48:45.938Z,68.00
2022-08-30T09:51:33.496Z,67.90
2022-08-30T09:54:17.791Z,67.80
2022-08-30T09:56:54.793Z,67.80
2022-08-30T09:59:37.938Z,67.40
2022-08-30T10:02:21.498Z,67.30
2022-08-30T10:07:59.767Z,67.20
2022-08-30T10:10:35.538Z,67.10
2022-08-30T10:13:17.528Z,67.10
2022-08-30T10:15:50.720Z,66.70
2022-08-30T10:18:29.255Z,66.40
2022-08-30T10:21:08.059Z,66.30
2022-08-30T10:23:39.410Z,66.00
2022-08-30T10:26:15.582Z,66.00
2022-08-30T10:28:52.404Z,65.80
2022-08-30T10:31:29.167Z,65.70
2022-08-30T10:34:03.004Z,65.90
2022-08-30T10:36:37.151Z,65.70
2022-08-30T10:39:05.829Z,65.70
2022-08-30T10:41:38.922Z,65.40
2022-08-30T10:44:12.886Z,65.30
2022-08-30T10:46:51.376Z,65.10
2022-08-30T10:49:22.526Z,65.10
2022-08-30T10:51:58.978Z,65.20
2022-08-30T10:54:34.892Z,65.10
2022-08-30T10:57:04.434Z,65.10
2022-08-30T10:59:33.438Z,65.10
2022-08-30T11:02:23.617Z,65.10
2022-08-30T11:05:20.272Z,65.00
2022-08-30T11:07:56.425Z,65.00
2022-08-30T11:10:39.155Z,64.80
2022-08-30T11:13:11.741Z,64.90
2022-08-30T11:15:56.330Z,64.70
2022-08-30T11:18:26.672Z,64.60
2022-08-30T11:20:56.809Z,64.50
2022-08-30T11:23:33.532Z,64.60
2022-08-30T11:26:05.437Z,64.60
2022-08-30T11:29:04.110Z,64.40
2022-08-30T11:31:43.646Z,63.90
2022-08-30T11:34:53.622Z,64.30
2022-08-30T11:37:40.214Z,64.20
2022-08-30T11:40:28.288Z,64.00
2022-08-30T11:42:57.544Z,63.60
2022-08-30T11:45:52.149Z,63.60
2022-08-30T11:48:53.837Z,63.70
2022-08-30T11:52:26.232Z,63.80
2022-08-30T11:55:13.408Z,63.40
2022-08-30T11:57:50.358Z,63.30
2022-08-30T12:00:34.222Z,62.80
2022-08-30T12:03:06.461Z,62.70
2022-08-30T12:05:54.781Z,62.40
2022-08-30T12:09:02.349Z,62.30
2022-08-30T12:12:02.344Z,61.80
2022-08-30T12:14:47.488Z,61.60
2022-08-30T12:17:50.713Z,62.30
2022-08-30T12:20:27.003Z,61.80
2022-08-30T12:22:56.016Z,61.70
2022-08-30T12:25:29.914Z,61.60
2022-08-30T12:28:11.815Z,61.60
2022-08-30T12:30:40.101Z,61.80
2022-08-30T12:33:12.163Z,61.30
2022-08-30T12:35:43.583Z,61.20
2022-08-30T12:38:19.200Z,60.70
2022-08-30T12:40:57.848Z,60.70
2022-08-30T12:43:38.903Z,59.60
2022-08-30T12:46:12.102Z,60.30
2022-08-30T12:48:42.423Z,61.00
2022-08-30T12:51:28.540Z,61.10
2022-08-30T12:54:08.390Z,61.40
2022-08-30T12:56:50.216Z,61.30
2022-08-30T12:59:54.238Z,61.30
2022-08-30T13:02:28.180Z,61.70
2022-08-30T13:04:57.375Z,62.00
2022-08-30T13:07:36.117Z,62.00
2022-08-30T13:10:14.640Z,62.10
2022-08-30T13:12:58.083Z,61.90
2022-08-30T13:15:32.376Z,61.90
2022-08-30T13:18:21.701Z,61.50
2022-08-30T13:21:11.277Z,61.40
2022-08-30T13:23:41.776Z,61.80
2022-08-30T13:26:09.556Z,61.90
2022-08-30T13:28:48.863Z,61.60
2022-08-30T13:31:18.417Z,61.70
2022-08-30T13:33:46.642Z,61.50
2022-08-30T13:36:14.885Z,61.90
2022-08-30T13:38:44.338Z,62.00
2022-08-30T13:41:12.279Z,61.90
2022-08-30T13:46:28.158Z,62.00
2022-08-30T13:49:01.592Z,62.00
2022-08-30T13:51:29.547Z,61.90
2022-08-30T13:54:00.577Z,61.70
2022-08-30T13:56:32.081Z,61.70
2022-08-30T13:58:59.984Z,61.90
2022-08-30T14:02:07.130Z,61.70
2022-08-30T14:04:19.668Z,62.70
2022-08-30T14:09:36.626Z,62.30
2022-08-30T14:12:04.948Z,62.30
2022-08-30T14:14:42.428Z,62.20
2022-08-30T14:17:11.430Z,61.90
2022-08-30T14:19:40.621Z,61.70
2022-08-30T14:22:08.366Z,61.50
2022-08-30T14:24:37.480Z,61.60
2022-08-30T14:27:05.273Z,61.60
2022-08-30T14:29:33.098Z,61.20
2022-08-30T14:32:03.295Z,61.30
2022-08-30T14:34:31.065Z,61.30
2022-08-30T14:37:00.611Z,61.60
2022-08-30T14:39:28.399Z,61.50
2022-08-30T14:41:57.870Z,61.50
2022-08-30T14:44:45.675Z,61.40
2022-08-30T14:47:19.043Z,61.10
2022-08-30T14:49:46.835Z,61.40
2022-08-30T14:52:14.617Z,61.40
2022-08-30T14:54:42.390Z,61.20
2022-08-30T14:57:11.577Z,61.20
2022-08-30T14:59:39.353Z,61.30
2022-08-30T15:02:07.480Z,61.30
2022-08-30T15:04:35.688Z,60.80
2022-08-30T15:07:04.093Z,60.30
2022-08-30T15:09:32.725Z,60.70
2022-08-30T15:12:03.399Z,61.00
2022-08-30T15:14:33.184Z,61.20
2022-08-30T15:17:02.667Z,61.10
2022-08-30T15:19:31.025Z,61.00
2022-08-30T15:22:01.913Z,60.50
2022-08-30T15:24:30.421Z,60.90
2022-08-30T15:26:59.645Z,60.90
2022-08-30T15:29:31.536Z,60.80
2022-08-30T15:32:02.290Z,60.50
2022-08-30T15:34:30.803Z,60.60
2022-08-30T15:36:59.261Z,60.10
2022-08-30T15:39:27.260Z,60.70
2022-08-30T15:41:59.924Z,60.40
2022-08-30T15:44:31.298Z,59.80
2022-08-30T15:47:00.578Z,60.10
2022-08-30T15:49:29.148Z,60.80
2022-08-30T15:52:01.901Z,61.10
2022-08-30T15:54:29.688Z,60.80
2022-08-30T15:56:59.969Z,60.90
2022-08-30T15:59:28.392Z,61.00
2022-08-30T16:01:57.261Z,60.80
2022-08-30T16:04:26.967Z,60.50
2022-08-30T16:06:55.058Z,60.80
2022-08-30T16:09:23.933Z,61.40
2022-08-30T16:11:52.152Z,61.50
2022-08-30T16:14:20.128Z,61.20
2022-08-30T16:16:47.942Z,60.80
2022-08-30T16:19:16.383Z,60.80
2022-08-30T16:21:47.322Z,60.90
2022-08-30T16:24:18.118Z,61.20
2022-08-30T16:26:50.239Z,61.50
2022-08-30T16:29:18.059Z,61.40
2022-08-30T16:31:47.458Z,61.50
2022-08-30T16:34:18.052Z,61.30
2022-08-30T16:36:47.337Z,61.30
2022-08-30T16:39:19.377Z,61.50
2022-08-30T16:41:48.372Z,61.50
2022-08-30T16:44:17.963Z,61.50
2022-08-30T16:46:52.734Z,61.70
2022-08-30T16:49:22.606Z,61.80
2022-08-30T16:51:52.496Z,61.80
2022-08-30T16:54:20.902Z,61.80
2022-08-30T16:56:48.794Z,61.60
2022-08-30T16:59:16.931Z,61.80
2022-08-30T17:01:45.115Z,61.90
2022-08-30T17:04:18.200Z,62.00
2022-08-30T17:06:46.565Z,62.00
2022-08-30T17:09:15.729Z,61.90
2022-08-30T17:11:43.549Z,61.90
2022-08-30T17:14:11.668Z,61.90
2022-08-30T17:19:28.649Z,62.20
2022-08-30T17:21:58.191Z,62.10
2022-08-30T17:24:28.148Z,62.10
2022-08-30T17:26:56.542Z,62.00
2022-08-30T17:29:26.238Z,62.10
2022-08-30T17:31:54.352Z,62.10
2022-08-30T17:34:22.518Z,62.10
2022-08-30T17:36:51.148Z,62.30
2022-08-30T17:39:19.489Z,62.20
2022-08-30T17:41:50.048Z,62.30
2022-08-30T17:44:19.203Z,62.60
2022-08-30T17:46:47.096Z,62.60
2022-08-30T17:49:16.326Z,62.70
2022-08-30T17:51:45.649Z,62.80
2022-08-30T17:54:15.910Z,62.80
2022-08-30T17:56:44.068Z,62.70
2022-08-30T17:59:15.968Z,62.90
2022-08-30T18:01:45.250Z,63.10
2022-08-30T18:04:19.458Z,63.00
2022-08-30T18:06:47.802Z,63.10
2022-08-30T18:09:16.286Z,63.10
2022-08-30T18:11:44.100Z,63.10
2022-08-30T18:14:15.232Z,63.10
2022-08-30T18:16:49.915Z,63.10
2022-08-30T18:19:22.715Z,63.20
2022-08-30T18:21:50.497Z,63.20
2022-08-30T18:24:19.158Z,63.40
2022-08-30T18:26:46.982Z,63.40
2022-08-30T18:29:29.186Z,63.50
2022-08-30T18:31:59.513Z,63.60
2022-08-30T18:34:27.861Z,63.60
2022-08-30T18:36:55.700Z,63.70
2022-08-30T18:39:24.062Z,63.70
2022-08-30T18:41:52.969Z,63.80
2022-08-30T18:44:28.734Z,63.80
2022-08-30T18:46:58.244Z,63.90
2022-08-30T18:49:28.926Z,63.90
2022-08-30T18:52:00.346Z,63.90
2022-08-30T18:54:28.909Z,64.00
2022-08-30T18:56:56.681Z,63.90
2022-08-30T18:59:35.546Z,64.00
2022-08-30T19:02:05.246Z,64.00
2022-08-30T19:04:35.218Z,64.00
2022-08-30T19:07:04.794Z,64.00
2022-08-30T19:09:32.669Z,64.10
2022-08-30T19:12:00.781Z,64.20
2022-08-30T19:14:29.992Z,64.20
2022-08-30T19:17:02.048Z,64.30
2022-08-30T19:19:32.625Z,64.30
2022-08-30T19:22:02.841Z,64.40
2022-08-30T19:24:30.575Z,64.50
2022-08-30T19:27:00.034Z,64.50
2022-08-30T19:29:29.176Z,64.50
2022-08-30T19:31:58.610Z,64.50
2022-08-30T19:34:26.527Z,64.70
2022-08-30T19:36:55.781Z,64.70
2022-08-30T19:39:23.561Z,64.80
2022-08-30T19:41:51.380Z,65.00
2022-08-30T19:44:19.362Z,64.90
2022-08-30T19:46:48.453Z,65.00
2022-08-30T19:49:16.847Z,65.00
2022-08-30T19:51:46.713Z,65.00
2022-08-30T19:54:15.423Z,65.00
2022-08-30T19:56:45.152Z,65.00
2022-08-30T19:59:12.918Z,65.10
2022-08-30T20:01:40.942Z,65.10
2022-08-30T20:04:11.109Z,65.20
2022-08-30T20:06:42.368Z,65.30
2022-08-30T20:12:06.670Z,65.20
2022-08-30T20:14:34.585Z,65.40
2022-08-30T20:17:02.561Z,65.30
2022-08-30T20:19:32.011Z,65.40
2022-08-30T20:22:07.612Z,65.40
2022-08-30T20:24:23.645Z,62.20
2022-08-30T20:27:09.502Z,65.40
2022-08-30T20:29:37.932Z,65.50
2022-08-30T20:32:05.879Z,65.40
2022-08-30T20:34:35.114Z,65.50
2022-08-30T20:37:02.920Z,65.60
2022-08-30T20:39:30.712Z,65.50
2022-08-30T20:41:58.556Z,65.60
2022-08-30T20:44:28.298Z,65.70
2022-08-30T20:46:56.264Z,65.80
2022-08-30T20:49:24.112Z,65.80
2022-08-30T20:51:55.902Z,65.70
2022-08-30T20:54:24.403Z,65.70
2022-08-30T20:56:52.350Z,65.80
2022-08-30T20:59:20.917Z,65.80
2022-08-30T21:01:49.021Z,65.80
2022-08-30T21:04:17.828Z,65.80
2022-08-30T21:06:45.578Z,65.80
2022-08-30T21:09:18.988Z,65.90
2022-08-30T21:11:48.483Z,66.10
2022-08-30T21:14:16.346Z,66.00
2022-08-30T21:16:44.165Z,66.00
2022-08-30T21:19:11.949Z,66.00
2022-08-30T21:21:39.750Z,66.20
2022-08-30T21:24:10.530Z,66.80
2022-08-30T21:26:41.874Z,66.20
2022-08-30T21:29:11.589Z,66.20
2022-08-30T21:31:39.999Z,66.20
2022-08-30T21:34:08.920Z,66.20
2022-08-30T21:36:47.382Z,66.20
2022-08-30T21:39:18.481Z,66.10
2022-08-30T21:41:48.373Z,66.10
2022-08-30T21:44:18.344Z,66.20
2022-08-30T21:46:48.510Z,66.20
2022-08-30T21:49:19.222Z,66.30
2022-08-30T21:51:49.341Z,66.30
2022-08-30T21:54:18.685Z,66.30
2022-08-30T21:56:49.718Z,66.40
2022-08-30T21:59:18.293Z,66.40
2022-08-30T22:01:47.230Z,66.50
2022-08-30T22:04:16.011Z,66.50
2022-08-30T22:06:47.936Z,66.50
2022-08-30T22:09:16.622Z,66.50
2022-08-30T22:11:45.730Z,66.60
2022-08-30T22:14:15.873Z,66.60
2022-08-30T22:16:44.778Z,66.60
2022-08-30T22:19:12.777Z,66.60
2022-08-30T22:21:42.821Z,66.60
2022-08-30T22:24:11.878Z,66.70
2022-08-30T22:26:40.550Z,66.70
2022-08-30T22:29:09.248Z,66.70
2022-08-30T22:31:41.650Z,66.70
2022-08-30T22:34:12.377Z,66.80
2022-08-30T22:36:40.221Z,66.80
2022-08-30T22:39:09.839Z,66.90
2022-08-30T22:41:39.456Z,66.80
2022-08-30T22:44:07.306Z,66.80
2022-08-30T22:46:35.621Z,66.80
2022-08-30T22:49:06.535Z,66.90
2022-08-30T22:51:35.127Z,66.90
2022-08-30T22:54:03.226Z,66.90
2022-08-30T22:56:31.270Z,67.00
2022-08-30T22:58:59.094Z,67.00
2022-08-30T23:01:30.673Z,67.00
2022-08-30T23:04:00.912Z,67.00
2022-08-30T23:06:30.820Z,67.10
2022-08-30T23:08:58.710Z,67.10
2022-08-30T23:11:27.061Z,67.10
2022-08-30T23:13:54.951Z,67.20
2022-08-30T23:16:23.654Z,67.20
2022-08-30T23:18:51.503Z,67.20
2022-08-30T23:21:21.797Z,67.20
2022-08-30T23:24:10.842Z,67.20
2022-08-30T23:26:56.869Z,67.30
2022-08-30T23:29:46.678Z,67.30
2022-08-30T23:32:32.163Z,67.30
2022-08-30T23:35:17.528Z,67.30
2022-08-30T23:38:02.793Z,67.20
2022-08-30T23:40:49.422Z,67.40
2022-08-30T23:43:34.613Z,67.50
2022-08-30T23:46:19.929Z,67.50
2022-08-30T23:49:05.696Z,67.50
2022-08-30T23:51:51.562Z,67.50
2022-08-30T23:54:36.910Z,67.50
2022-08-30T23:57:24.352Z,67.60
